Time;durP1;ratioP1;P1;durP2;ratioP2;P2;SDS_P1;SDS_P2;PMS_P1;PMS_P2;Temp;Humidity;BMP_temperature;BMP_pressure;BME280_temperature;BME280_humidity;BME280_pressure;Samples;Min_cycle;Max_cycle;Signal;HPM_P1;HPM_P2
2023/06/06 00:01:18;;;;;;;9.13;8.83;;;16.00;99.90;;;;;;5043964;28;20463;-67
2023/06/06 00:03:48;;;;;;;9.17;8.70;;;15.90;99.90;;;;;;5039251;28;20488;-67
2023/06/06 00:06:16;;;;;;;11.90;11.30;;;15.90;99.90;;;;;;5038364;28;20760;-68
2023/06/06 00:08:43;;;;;;;10.70;10.03;;;15.90;99.90;;;;;;5043431;28;20922;-68
2023/06/06 00:11:11;;;;;;;8.30;8.00;;;15.80;99.90;;;;;;5040209;28;20543;-69
2023/06/06 00:13:40;;;;;;;8.97;8.67;;;15.80;99.90;;;;;;5041096;28;21006;-68
2023/06/06 00:16:09;;;;;;;8.53;8.23;;;15.70;99.90;;;;;;5044159;28;20585;-68
2023/06/06 00:18:36;;;;;;;10.53;9.93;;;15.70;99.90;;;;;;5048096;28;20460;-68
2023/06/06 00:21:04;;;;;;;10.50;9.90;;;15.70;99.90;;;;;;5048523;28;20511;-67
2023/06/06 00:23:31;;;;;;;8.00;7.70;;;15.60;99.90;;;;;;5038297;28;20487;-68
2023/06/06 00:25:59;;;;;;;11.40;10.47;;;15.60;99.90;;;;;;5044948;28;20478;-68
2023/06/06 00:28:26;;;;;;;9.03;8.60;;;15.60;99.90;;;;;;5041135;28;20554;-67
2023/06/06 00:30:53;;;;;;;8.50;8.10;;;15.50;99.90;;;;;;5042288;28;20466;-68
2023/06/06 00:33:20;;;;;;;8.87;8.57;;;15.40;99.90;;;;;;5042553;28;20494;-68
2023/06/06 00:35:48;;;;;;;10.87;10.33;;;15.40;99.90;;;;;;5045463;28;20925;-68
2023/06/06 00:38:16;;;;;;;10.73;10.03;;;15.40;99.90;;;;;;5038138;28;20555;-68
2023/06/06 00:40:43;;;;;;;8.73;8.43;;;15.40;99.90;;;;;;5040959;28;20448;-67
2023/06/06 00:43:09;;;;;;;7.60;7.40;;;15.30;99.90;;;;;;5043924;28;20507;-67
2023/06/06 00:45:36;;;;;;;9.27;8.77;;;15.30;99.90;;;;;;5048922;28;20459;-68
2023/06/06 00:48:04;;;;;;;9.83;9.40;;;15.30;99.90;;;;;;5032144;28;20472;-68
2023/06/06 00:50:32;;;;;;;9.10;8.70;;;15.20;99.90;;;;;;5036597;28;20876;-68
2023/06/06 00:52:59;;;;;;;8.27;7.97;;;15.20;99.90;;;;;;5041203;28;20475;-67
2023/06/06 00:55:28;;;;;;;9.20;8.70;;;15.20;99.90;;;;;;5036142;28;20466;-67
2023/06/06 00:57:55;;;;;;;8.30;8.00;;;15.20;99.90;;;;;;5048737;28;20509;-67
2023/06/06 01:00:22;;;;;;;8.27;7.97;;;15.10;99.90;;;;;;5044614;28;20962;-69
2023/06/06 01:02:49;;;;;;;8.30;8.00;;;15.10;99.90;;;;;;5048417;28;20521;-67
2023/06/06 01:05:19;;;;;;;9.17;8.77;;;15.00;99.90;;;;;;5035733;28;20857;-67
2023/06/06 01:07:47;;;;;;;10.10;9.37;;;14.90;99.90;;;;;;5038026;28;20456;-68
2023/06/06 01:10:15;;;;;;;7.73;7.43;;;14.90;99.90;;;;;;5042047;28;20547;-67
2023/06/06 01:12:49;;;;;;;7.10;6.90;;;14.80;99.90;;;;;;5040104;28;20456;-68
2023/06/06 01:15:20;;;;;;;7.43;7.23;;;14.80;99.90;;;;;;5035899;28;20481;-68
2023/06/06 01:17:47;;;;;;;7.60;7.40;;;14.80;99.90;;;;;;5040640;28;20962;-68
2023/06/06 01:20:15;;;;;;;7.07;6.87;;;14.70;99.90;;;;;;5031594;28;20493;-67
2023/06/06 01:22:44;;;;;;;7.27;7.00;;;14.60;99.90;;;;;;5036405;28;20931;-68
2023/06/06 01:25:18;;;;;;;8.47;7.53;;;14.50;99.90;;;;;;5048753;28;20598;-66
2023/06/06 01:27:46;;;;;;;11.43;10.30;;;14.50;99.90;;;;;;5032503;28;20558;-67
2023/06/06 01:30:14;;;;;;;8.13;7.80;;;14.50;99.90;;;;;;5041784;28;20517;-66
2023/06/06 01:32:47;;;;;;;7.53;7.23;;;14.40;99.90;;;;;;5041243;28;20467;-67
2023/06/06 01:35:21;;;;;;;7.73;7.43;;;14.40;99.90;;;;;;5045527;28;20468;-66
2023/06/06 01:37:56;;;;;;;6.53;6.33;;;14.30;99.90;;;;;;5049295;28;20463;-67
2023/06/06 01:40:26;;;;;;;7.07;6.77;;;14.30;99.90;;;;;;5042784;28;20470;-68
2023/06/06 01:42:53;;;;;;;6.90;6.70;;;14.20;99.90;;;;;;5045078;28;20460;-67
2023/06/06 01:45:24;;;;;;;8.00;7.70;;;14.20;99.90;;;;;;5041285;28;20488;-67
2023/06/06 01:47:52;;;;;;;6.30;6.10;;;14.10;99.90;;;;;;5043308;28;20471;-67
2023/06/06 01:50:20;;;;;;;6.43;6.23;;;14.10;99.90;;;;;;5038638;28;20464;-67
2023/06/06 01:52:47;;;;;;;6.97;6.77;;;14.00;99.90;;;;;;5042295;28;20509;-66
2023/06/06 01:55:14;;;;;;;6.27;6.07;;;14.00;99.90;;;;;;5032981;28;20982;-67
2023/06/06 01:57:41;;;;;;;8.03;7.47;;;14.00;99.90;;;;;;5043115;28;20862;-66
2023/06/06 02:00:10;;;;;;;9.60;8.77;;;13.90;99.90;;;;;;5035635;28;20518;-66
2023/06/06 02:02:38;;;;;;;6.83;6.60;;;13.80;99.90;;;;;;5047330;28;20471;-66
2023/06/06 02:05:05;;;;;;;7.90;7.50;;;13.80;99.90;;;;;;5045438;28;20486;-66
2023/06/06 02:07:35;;;;;;;6.67;6.47;;;13.80;99.90;;;;;;5037418;28;20467;-67
2023/06/06 02:10:01;;;;;;;14.83;8.50;;;13.80;99.90;;;;;;5037734;28;20460;-68
2023/06/06 02:12:30;;;;;;;8.70;7.20;;;13.70;99.90;;;;;;5042046;28;20469;-66
2023/06/06 02:14:58;;;;;;;6.13;5.93;;;13.70;99.90;;;;;;5038742;28;20472;-65
2023/06/06 02:17:27;;;;;;;8.83;8.03;;;13.70;99.90;;;;;;5038143;28;20882;-66
2023/06/06 02:19:53;;;;;;;5.73;5.43;;;13.60;99.90;;;;;;5037870;28;21037;-66
2023/06/06 02:22:20;;;;;;;6.70;6.50;;;13.60;99.90;;;;;;5041031;28;20464;-67
2023/06/06 02:24:49;;;;;;;6.00;5.80;;;13.50;99.90;;;;;;5035669;28;20573;-67
2023/06/06 02:27:16;;;;;;;6.93;6.53;;;13.50;99.90;;;;;;5037618;28;20491;-66
2023/06/06 02:29:45;;;;;;;7.40;6.93;;;13.50;99.90;;;;;;5036650;28;20552;-67
2023/06/06 02:32:12;;;;;;;5.97;5.77;;;13.50;99.90;;;;;;5044373;28;20467;-67
2023/06/06 02:34:39;;;;;;;5.40;5.20;;;13.40;99.90;;;;;;5045645;28;20486;-66
2023/06/06 02:37:07;;;;;;;5.37;5.23;;;13.30;99.90;;;;;;5032465;28;20806;-67
2023/06/06 02:39:35;;;;;;;7.00;6.70;;;13.20;99.90;;;;;;5038560;28;20475;-67
2023/06/06 02:42:02;;;;;;;6.07;5.87;;;13.20;99.90;;;;;;5039971;28;20467;-66
2023/06/06 02:44:30;;;;;;;8.03;7.53;;;13.20;99.90;;;;;;5035120;28;20480;-66
2023/06/06 02:46:58;;;;;;;6.00;5.80;;;13.20;99.90;;;;;;5042765;28;20520;-68
2023/06/06 02:49:27;;;;;;;7.60;6.90;;;13.10;99.90;;;;;;5038557;28;20463;-66
2023/06/06 02:51:55;;;;;;;5.33;5.03;;;13.10;99.90;;;;;;5028542;28;20663;-66
2023/06/06 02:54:22;;;;;;;5.20;5.07;;;13.10;99.90;;;;;;5044327;28;20463;-66
2023/06/06 02:56:48;;;;;;;5.40;5.20;;;13.00;99.90;;;;;;5042441;28;20489;-66
2023/06/06 02:59:15;;;;;;;5.40;5.20;;;13.00;99.90;;;;;;5042603;28;20463;-65
2023/06/06 03:01:44;;;;;;;5.40;5.20;;;13.00;99.90;;;;;;5039443;28;20461;-67
2023/06/06 03:04:13;;;;;;;5.50;5.30;;;12.80;99.90;;;;;;5028098;28;20461;-67
2023/06/06 03:06:40;;;;;;;7.83;7.43;;;12.80;99.90;;;;;;5038919;28;21033;-67
2023/06/06 03:09:09;;;;;;;6.03;5.53;;;12.80;99.90;;;;;;5046251;28;20468;-67
2023/06/06 03:11:36;;;;;;;7.03;6.73;;;12.80;99.90;;;;;;5037366;28;20467;-66
2023/06/06 03:14:03;;;;;;;5.40;5.20;;;12.70;99.90;;;;;;5033930;28;20498;-67
2023/06/06 03:16:34;;;;;;;6.20;5.90;;;12.70;99.90;;;;;;5041818;28;20960;-67
2023/06/06 03:19:03;;;;;;;5.80;5.60;;;12.60;99.90;;;;;;5040263;28;20468;-67
2023/06/06 03:21:33;;;;;;;5.20;5.00;;;12.60;99.90;;;;;;5036536;28;20767;-67
2023/06/06 03:24:02;;;;;;;6.03;5.80;;;12.60;99.90;;;;;;5044742;28;20460;-67
2023/06/06 03:26:31;;;;;;;6.33;6.10;;;12.60;99.90;;;;;;5043039;28;20471;-67
2023/06/06 03:28:58;;;;;;;4.27;4.17;;;12.40;99.90;;;;;;5043067;28;20606;-68
2023/06/06 03:31:29;;;;;;;6.80;6.30;;;12.40;99.90;;;;;;5045171;28;20824;-68
2023/06/06 03:33:56;;;;;;;4.80;4.60;;;12.40;99.90;;;;;;5044372;28;20490;-67
2023/06/06 03:36:23;;;;;;;5.77;5.47;;;12.40;99.90;;;;;;5036325;28;20940;-67
2023/06/06 03:38:51;;;;;;;6.50;6.03;;;12.40;99.90;;;;;;5044503;28;20855;-67
2023/06/06 03:41:19;;;;;;;4.97;4.70;;;12.40;99.90;;;;;;5038893;28;20463;-67
2023/06/06 03:43:46;;;;;;;6.33;6.03;;;12.40;99.90;;;;;;5037498;28;20543;-67
2023/06/06 03:46:13;;;;;;;7.70;7.10;;;12.30;99.90;;;;;;5042815;28;21107;-69
2023/06/06 03:48:40;;;;;;;6.70;6.17;;;12.30;99.90;;;;;;5047273;28;20551;-68
2023/06/06 03:51:08;;;;;;;4.37;4.27;;;12.30;99.90;;;;;;5042914;28;20473;-69
2023/06/06 03:53:35;;;;;;;4.87;4.77;;;12.30;99.90;;;;;;5034740;28;20465;-69
2023/06/06 03:56:05;;;;;;;4.80;4.70;;;12.20;99.90;;;;;;5040023;28;20457;-68
2023/06/06 03:58:32;;;;;;;5.13;4.93;;;12.20;99.90;;;;;;5046093;28;20519;-68
2023/06/06 04:01:01;;;;;;;6.23;5.93;;;12.20;99.90;;;;;;5046689;28;20456;-67
2023/06/06 04:03:35;;;;;;;5.03;4.83;;;12.20;99.90;;;;;;5045263;28;20463;-67
2023/06/06 04:06:04;;;;;;;7.03;6.63;;;12.30;99.90;;;;;;5044997;28;20560;-67
2023/06/06 04:08:31;;;;;;;5.10;5.00;;;12.30;99.90;;;;;;5043991;28;20467;-68
2023/06/06 04:10:58;;;;;;;5.13;4.97;;;12.40;99.90;;;;;;5031245;28;20530;-68
2023/06/06 04:13:27;;;;;;;6.00;5.70;;;12.40;99.90;;;;;;5045082;28;20903;-68
2023/06/06 04:15:54;;;;;;;5.60;5.30;;;12.40;99.90;;;;;;5042208;28;20471;-68
2023/06/06 04:18:21;;;;;;;6.77;6.43;;;12.40;99.90;;;;;;5045848;28;20533;-68
2023/06/06 04:20:48;;;;;;;5.60;5.40;;;12.40;99.90;;;;;;5049157;28;20489;-68
2023/06/06 04:23:15;;;;;;;6.97;6.57;;;12.40;99.90;;;;;;5044962;28;20563;-67
2023/06/06 04:25:43;;;;;;;5.70;5.50;;;12.50;99.90;;;;;;5041920;28;20935;-68
2023/06/06 04:28:10;;;;;;;8.30;6.30;;;12.50;99.90;;;;;;5043879;28;20487;-68
2023/06/06 04:30:40;;;;;;;6.80;6.30;;;12.50;99.90;;;;;;5044157;28;20488;-68
2023/06/06 04:33:08;;;;;;;5.87;5.30;;;12.60;99.90;;;;;;5045717;28;20483;-67
2023/06/06 04:35:35;;;;;;;5.03;4.93;;;12.60;99.90;;;;;;5044898;28;20459;-67
2023/06/06 04:38:02;;;;;;;5.60;5.40;;;12.60;99.90;;;;;;5045331;28;20468;-67
2023/06/06 04:40:32;;;;;;;8.07;7.47;;;12.60;99.90;;;;;;5035026;28;20465;-68
2023/06/06 04:43:01;;;;;;;6.30;6.00;;;12.70;99.90;;;;;;5040163;28;20547;-67
2023/06/06 04:45:27;;;;;;;6.50;6.30;;;12.70;99.90;;;;;;5041707;28;20605;-69
2023/06/06 04:47:57;;;;;;;5.80;5.60;;;12.80;99.90;;;;;;5040347;28;20943;-68
2023/06/06 04:50:24;;;;;;;8.20;7.70;;;12.80;99.90;;;;;;5041732;28;20461;-68
2023/06/06 04:52:51;;;;;;;9.83;9.00;;;12.80;99.90;;;;;;5033296;28;20898;-67
2023/06/06 04:55:18;;;;;;;5.80;5.60;;;12.90;99.90;;;;;;5044856;28;20472;-68
2023/06/06 04:57:45;;;;;;;5.73;5.53;;;12.90;99.90;;;;;;5039380;28;20463;-68
2023/06/06 05:00:13;;;;;;;6.10;5.90;;;13.00;99.90;;;;;;5041056;28;20457;-68
2023/06/06 05:02:40;;;;;;;7.50;7.20;;;13.00;99.90;;;;;;5035327;28;20457;-69
2023/06/06 05:05:10;;;;;;;6.90;6.50;;;13.10;99.90;;;;;;5031891;28;20483;-68
2023/06/06 05:07:38;;;;;;;12.23;8.10;;;13.20;99.90;;;;;;5038887;28;20540;-68
2023/06/06 05:10:06;;;;;;;6.60;6.30;;;13.20;99.90;;;;;;5039882;28;20471;-67
2023/06/06 05:12:33;;;;;;;7.87;7.43;;;13.30;99.90;;;;;;5034794;28;20802;-68
2023/06/06 05:15:00;;;;;;;6.63;6.43;;;13.30;99.90;;;;;;5029524;28;20495;-67
2023/06/06 05:17:28;;;;;;;7.10;6.80;;;13.40;99.90;;;;;;5038455;28;20881;-67
2023/06/06 05:19:55;;;;;;;8.27;7.97;;;13.40;99.90;;;;;;5048757;28;20831;-67
2023/06/06 05:22:24;;;;;;;9.33;8.93;;;13.40;99.90;;;;;;5040096;28;20550;-67
2023/06/06 05:24:51;;;;;;;8.63;8.03;;;13.50;99.90;;;;;;5040825;28;20453;-68
2023/06/06 05:27:18;;;;;;;7.90;7.60;;;13.60;99.90;;;;;;5038804;28;20831;-67
2023/06/06 05:29:45;;;;;;;8.70;8.40;;;13.70;99.90;;;;;;5042630;28;20529;-68
2023/06/06 05:32:13;;;;;;;8.47;8.10;;;13.80;99.90;;;;;;5042840;28;20463;-67
2023/06/06 05:34:40;;;;;;;8.60;8.30;;;13.90;99.90;;;;;;5041718;28;20475;-67
2023/06/06 05:37:07;;;;;;;10.87;10.10;;;13.90;99.90;;;;;;5038722;28;20448;-67
2023/06/06 05:39:35;;;;;;;10.03;9.43;;;14.00;99.90;;;;;;5039584;28;20467;-68
2023/06/06 05:42:02;;;;;;;8.80;8.40;;;14.00;99.90;;;;;;5036811;28;20460;-67
2023/06/06 05:44:29;;;;;;;7.90;7.60;;;14.10;99.90;;;;;;5038242;28;20488;-67
2023/06/06 05:46:56;;;;;;;8.93;8.50;;;14.20;99.90;;;;;;5037319;28;20550;-68
2023/06/06 05:49:23;;;;;;;9.70;8.80;;;14.30;99.90;;;;;;5038734;28;20507;-67
2023/06/06 05:51:50;;;;;;;9.50;8.97;;;14.40;99.90;;;;;;5037321;28;20472;-67
2023/06/06 05:54:17;;;;;;;10.57;9.97;;;14.60;99.90;;;;;;5038134;28;20547;-69
2023/06/06 05:56:45;;;;;;;10.00;9.60;;;14.70;99.90;;;;;;5041833;28;20911;-68
2023/06/06 05:59:13;;;;;;;11.17;10.47;;;14.80;99.90;;;;;;5036087;28;20547;-68
2023/06/06 06:01:41;;;;;;;11.53;11.03;;;14.80;99.90;;;;;;5038169;28;20472;-67
2023/06/06 06:04:08;;;;;;;10.23;9.83;;;14.90;99.90;;;;;;5039677;28;20779;-67
2023/06/06 06:06:37;;;;;;;10.40;10.00;;;15.10;99.90;;;;;;5039132;28;20496;-67
2023/06/06 06:09:04;;;;;;;12.37;11.60;;;15.20;99.90;;;;;;5035103;28;20457;-67
2023/06/06 06:11:31;;;;;;;12.00;11.50;;;15.20;99.90;;;;;;5037044;28;21081;-68
2023/06/06 06:14:00;;;;;;;12.03;11.33;;;15.30;99.90;;;;;;5044760;28;20521;-68
2023/06/06 06:16:26;;;;;;;12.77;12.17;;;15.30;99.90;;;;;;5035879;28;20486;-68
2023/06/06 06:18:53;;;;;;;13.90;13.20;;;15.40;99.90;;;;;;5046761;28;20444;-68
2023/06/06 06:21:21;;;;;;;12.07;11.50;;;15.50;99.90;;;;;;5034958;28;20983;-69
2023/06/06 06:23:49;;;;;;;11.10;10.60;;;15.50;99.90;;;;;;5038349;28;20460;-67
2023/06/06 06:26:16;;;;;;;12.53;11.93;;;15.60;99.90;;;;;;5035509;28;20488;-68
2023/06/06 06:28:44;;;;;;;11.23;10.83;;;15.70;99.90;;;;;;5035006;28;20456;-67
2023/06/06 06:31:13;;;;;;;15.77;14.93;;;15.80;99.90;;;;;;5041642;28;20535;-67
2023/06/06 06:33:40;;;;;;;14.60;13.57;;;15.90;99.90;;;;;;5041299;28;20904;-68
2023/06/06 06:36:09;;;;;;;13.17;12.57;;;16.00;99.90;;;;;;5036695;28;20537;-68
2023/06/06 06:38:36;;;;;;;13.50;12.90;;;16.00;99.90;;;;;;5031176;28;20467;-68
2023/06/06 06:41:03;;;;;;;14.13;13.33;;;16.00;99.90;;;;;;5028413;28;21385;-67
2023/06/06 06:43:30;;;;;;;12.07;11.57;;;16.10;99.90;;;;;;5034285;28;20460;-68
2023/06/06 06:45:57;;;;;;;12.17;11.67;;;16.30;99.90;;;;;;5028669;28;20504;-68
2023/06/06 06:48:26;;;;;;;12.67;12.17;;;16.30;99.90;;;;;;5035127;28;20884;-68
2023/06/06 06:50:53;;;;;;;12.63;12.13;;;16.50;99.90;;;;;;5040819;28;20483;-68
2023/06/06 06:53:23;;;;;;;13.60;13.00;;;16.40;99.90;;;;;;5032613;28;21042;-68
2023/06/06 06:55:51;;;;;;;11.77;11.37;;;16.60;99.90;;;;;;5033318;28;20471;-68
2023/06/06 06:58:25;;;;;;;12.93;12.43;;;16.70;99.90;;;;;;5029558;28;20456;-68
2023/06/06 07:00:52;;;;;;;12.57;12.07;;;16.90;99.90;;;;;;5035983;28;20457;-68
2023/06/06 07:03:20;;;;;;;12.87;12.37;;;17.00;99.90;;;;;;5035665;28;20539;-67
2023/06/06 07:05:48;;;;;;;13.90;13.30;;;17.00;99.90;;;;;;5032839;28;20496;-68
2023/06/06 07:08:15;;;;;;;13.60;13.00;;;17.00;99.90;;;;;;5035230;28;20504;-68
2023/06/06 07:10:43;;;;;;;16.47;15.70;;;17.20;99.90;;;;;;5033023;28;20530;-67
2023/06/06 07:13:10;;;;;;;24.53;13.13;;;17.40;99.90;;;;;;5029161;28;20464;-68
2023/06/06 07:15:38;;;;;;;12.50;12.00;;;17.50;99.90;;;;;;5031935;28;21011;-68
2023/06/06 07:18:05;;;;;;;14.43;13.00;;;17.40;99.90;;;;;;5034196;28;20455;-68
2023/06/06 07:20:33;;;;;;;14.40;13.60;;;17.40;99.90;;;;;;5034221;28;20491;-68
2023/06/06 07:23:02;;;;;;;13.53;12.83;;;17.50;99.90;;;;;;5040805;28;20510;-68
2023/06/06 07:25:30;;;;;;;12.97;12.47;;;17.60;99.90;;;;;;5029448;28;20452;-68
2023/06/06 07:27:58;;;;;;;14.70;13.90;;;17.70;99.90;;;;;;5030392;28;20469;-67
2023/06/06 07:30:25;;;;;;;13.07;12.57;;;17.90;99.90;;;;;;5034154;28;21039;-68
2023/06/06 07:32:52;;;;;;;13.23;12.70;;;17.80;99.90;;;;;;5035446;28;20460;-68
2023/06/06 07:35:21;;;;;;;14.53;13.30;;;17.90;99.90;;;;;;5031085;28;20476;-68
2023/06/06 07:37:48;;;;;;;14.20;13.50;;;18.00;99.90;;;;;;5032198;28;20467;-68
2023/06/06 07:40:17;;;;;;;14.00;13.40;;;18.10;99.90;;;;;;5031098;28;20521;-68
2023/06/06 07:42:44;;;;;;;17.13;15.77;;;18.30;99.90;;;;;;5038990;28;20554;-69
2023/06/06 07:45:12;;;;;;;15.23;14.30;;;18.30;99.90;;;;;;5029060;28;20952;-67
2023/06/06 07:47:40;;;;;;;14.70;13.90;;;18.20;99.90;;;;;;5036831;28;20492;-68
2023/06/06 07:50:07;;;;;;;16.03;14.10;;;18.10;99.90;;;;;;5038501;28;20862;-68
2023/06/06 07:52:34;;;;;;;14.37;13.77;;;18.00;99.90;;;;;;5040214;28;20907;-68
2023/06/06 07:55:03;;;;;;;16.03;14.97;;;18.00;99.90;;;;;;5036112;28;20482;-68
2023/06/06 07:57:33;;;;;;;15.50;14.27;;;18.20;99.90;;;;;;5031718;28;20822;-67
2023/06/06 08:00:00;;;;;;;15.90;14.57;;;18.30;99.90;;;;;;5037764;28;20471;-69
2023/06/06 08:02:28;;;;;;;13.63;13.03;;;18.50;99.90;;;;;;5039869;28;20482;-68
2023/06/06 08:04:56;;;;;;;16.40;15.27;;;18.50;99.90;;;;;;5036114;28;20527;-67
2023/06/06 08:07:23;;;;;;;13.93;13.23;;;19.10;99.90;;;;;;5028660;28;20527;-68
2023/06/06 08:09:50;;;;;;;15.20;14.50;;;19.70;99.90;;;;;;5037164;28;20971;-68
2023/06/06 08:12:17;;;;;;;15.03;14.10;;;20.30;99.90;;;;;;5037677;28;20833;-68
2023/06/06 08:14:45;;;;;;;13.40;12.90;;;21.00;99.90;;;;;;5034980;28;20469;-68
2023/06/06 08:17:13;;;;;;;14.03;13.43;;;21.20;99.90;;;;;;5037538;28;20469;-67
2023/06/06 08:19:40;;;;;;;15.73;14.93;;;21.80;99.90;;;;;;5037254;28;20483;-68
2023/06/06 08:22:08;;;;;;;15.30;14.60;;;21.80;99.90;;;;;;5039357;28;20676;-68
2023/06/06 08:24:34;;;;;;;16.47;15.43;;;21.60;99.90;;;;;;5039447;28;21608;-68
2023/06/06 08:27:03;;;;;;;14.73;14.10;;;21.90;99.90;;;;;;5035668;28;20891;-68
2023/06/06 08:29:29;;;;;;;16.50;15.60;;;22.10;99.90;;;;;;5035812;28;20460;-68
2023/06/06 08:31:58;;;;;;;17.90;15.07;;;22.70;99.90;;;;;;5041122;28;20463;-68
2023/06/06 08:34:26;;;;;;;14.50;13.90;;;22.90;99.90;;;;;;5038869;28;20488;-68
2023/06/06 08:36:53;;;;;;;15.40;14.70;;;23.00;99.90;;;;;;5040328;28;20456;-68
2023/06/06 08:39:21;;;;;;;15.47;14.77;;;23.60;99.90;;;;;;5040658;28;20499;-68
2023/06/06 08:41:51;;;;;;;15.57;14.77;;;23.60;99.90;;;;;;5039547;28;20471;-68
2023/06/06 08:44:20;;;;;;;19.93;18.43;;;23.50;99.90;;;;;;5036258;28;20556;-68
2023/06/06 08:46:50;;;;;;;15.20;14.50;;;23.80;99.90;;;;;;5039218;28;20635;-68
2023/06/06 08:49:19;;;;;;;15.80;15.07;;;24.20;99.90;;;;;;5033333;28;20535;-69
2023/06/06 08:51:48;;;;;;;15.50;14.80;;;24.50;99.90;;;;;;5039419;28;21378;-68
2023/06/06 08:54:14;;;;;;;16.23;15.10;;;25.10;99.90;;;;;;5033688;28;21009;-68
2023/06/06 08:56:44;;;;;;;17.70;16.70;;;25.20;99.90;;;;;;5039078;28;20513;-69
2023/06/06 08:59:11;;;;;;;17.67;16.60;;;25.00;99.90;;;;;;5042807;28;20870;-68
2023/06/06 09:01:39;;;;;;;19.57;18.10;;;25.10;99.90;;;;;;5043870;28;20471;-69
2023/06/06 09:04:07;;;;;;;15.53;14.83;;;24.90;99.90;;;;;;5036771;28;20823;-69
2023/06/06 09:06:38;;;;;;;15.83;15.07;;;24.50;99.90;;;;;;5036388;28;20826;-68
2023/06/06 09:09:07;;;;;;;15.60;14.90;;;24.50;99.90;;;;;;5031248;28;20484;-68
2023/06/06 09:11:34;;;;;;;20.37;18.37;;;24.40;99.90;;;;;;5041966;28;20466;-69
2023/06/06 09:14:01;;;;;;;15.67;14.97;;;25.20;99.90;;;;;;5041490;28;20463;-68
2023/06/06 09:16:28;;;;;;;17.57;16.63;;;24.90;99.90;;;;;;5038925;28;20468;-69
2023/06/06 09:18:58;;;;;;;17.47;16.67;;;25.00;99.90;;;;;;5031179;28;20464;-68
2023/06/06 09:21:29;;;;;;;17.47;16.10;;;25.20;99.90;;;;;;5036974;28;20472;-68
2023/06/06 09:23:58;;;;;;;15.83;15.13;;;25.70;99.90;;;;;;5039375;28;20581;-69
2023/06/06 09:26:26;;;;;;;17.07;15.97;;;25.30;99.90;;;;;;5044560;28;20933;-68
2023/06/06 09:28:54;;;;;;;17.57;16.33;;;25.70;99.90;;;;;;5039124;28;20464;-68
2023/06/06 09:31:23;;;;;;;18.57;17.50;;;25.60;99.90;;;;;;5040690;28;20461;-69
2023/06/06 09:33:51;;;;;;;16.30;15.60;;;26.10;99.90;;;;;;5034146;28;20548;-69
2023/06/06 09:36:21;;;;;;;17.30;16.40;;;26.20;99.90;;;;;;5036941;28;21010;-68
2023/06/06 09:38:49;;;;;;;15.80;15.10;;;25.80;99.90;;;;;;5036094;28;20456;-68
2023/06/06 09:41:17;;;;;;;19.67;17.50;;;26.90;99.90;;;;;;5033567;28;20471;-66
2023/06/06 09:43:43;;;;;;;16.77;15.97;;;27.40;99.90;;;;;;5034851;28;20463;-68
2023/06/06 09:46:15;;;;;;;18.60;17.37;;;27.00;99.90;;;;;;5043261;28;20456;-67
2023/06/06 09:48:41;;;;;;;15.77;15.07;;;26.80;99.90;;;;;;5043404;28;20460;-67
2023/06/06 09:51:10;;;;;;;17.33;16.50;;;27.30;99.90;;;;;;5036698;28;20468;-67
2023/06/06 09:53:38;;;;;;;18.07;16.73;;;27.00;99.90;;;;;;5037981;28;20461;-67
2023/06/06 09:56:07;;;;;;;17.43;16.50;;;26.80;99.90;;;;;;5032122;28;20461;-67
2023/06/06 09:58:36;;;;;;;17.20;16.40;;;27.40;99.90;;;;;;5035577;28;20477;-67
2023/06/06 10:01:03;;;;;;;16.60;15.70;;;27.40;99.90;;;;;;5035345;28;20515;-68
2023/06/06 10:03:32;;;;;;;16.10;15.40;;;27.90;99.90;;;;;;5035267;28;20463;-67
2023/06/06 10:05:59;;;;;;;18.07;16.97;;;28.20;99.60;;;;;;5030295;28;20448;-67
2023/06/06 10:08:27;;;;;;;17.70;16.80;;;28.70;98.70;;;;;;5029006;28;21116;-68
2023/06/06 10:10:55;;;;;;;18.00;17.00;;;28.80;97.20;;;;;;5033070;28;20461;-67
2023/06/06 10:13:24;;;;;;;15.97;15.27;;;28.80;96.10;;;;;;5034715;28;20463;-67
2023/06/06 10:15:53;;;;;;;18.53;17.63;;;28.50;96.30;;;;;;5032890;28;20468;-67
2023/06/06 10:18:21;;;;;;;19.07;17.93;;;28.50;95.40;;;;;;5037718;28;20460;-67
2023/06/06 10:20:49;;;;;;;22.23;17.03;;;27.80;94.70;;;;;;5034977;28;20492;-67
2023/06/06 10:23:16;;;;;;;18.33;17.30;;;27.80;95.40;;;;;;5031632;28;20463;-67
2023/06/06 10:25:44;;;;;;;16.93;16.13;;;28.00;94.80;;;;;;5037377;28;20832;-68
2023/06/06 10:28:17;;;;;;;18.13;16.87;;;28.30;95.40;;;;;;5041503;28;20903;-67
2023/06/06 10:30:59;;;;;;;18.57;17.47;;;28.40;95.10;;;;;;5033133;28;20468;-67
2023/06/06 10:33:33;;;;;;;16.43;15.70;;;29.20;93.20;;;;;;5033624;28;21030;-68
2023/06/06 10:36:04;;;;;;;15.67;14.97;;;29.50;92.80;;;;;;5031028;28;20467;-68
2023/06/06 10:38:33;;;;;;;18.43;17.00;;;29.70;91.90;;;;;;5036891;28;20803;-68
2023/06/06 10:41:00;;;;;;;18.20;17.03;;;30.90;90.10;;;;;;5036158;28;20468;-68
2023/06/06 10:43:51;;;;;;;17.07;16.27;;;30.50;90.50;;;;;;5032849;28;20546;-67
2023/06/06 10:46:21;;;;;;;16.07;15.30;;;30.20;87.90;;;;;;5027102;28;20547;-67
2023/06/06 10:48:55;;;;;;;17.53;16.70;;;30.20;90.10;;;;;;5035855;28;20463;-68
2023/06/06 10:51:33;;;;;;;17.30;16.50;;;30.00;88.00;;;;;;5035135;28;20452;-68
2023/06/06 10:54:20;;;;;;;18.10;17.10;;;29.70;90.50;;;;;;5035821;28;20467;-68
2023/06/06 10:56:50;;;;;;;17.50;16.53;;;29.70;87.30;;;;;;5032300;28;20457;-68
2023/06/06 10:59:17;;;;;;;16.37;15.53;;;29.80;87.80;;;;;;5037947;28;20818;-67
2023/06/06 11:01:45;;;;;;;16.10;15.40;;;30.30;90.50;;;;;;5029711;28;20942;-68
2023/06/06 11:04:23;;;;;;;18.10;17.20;;;30.60;80.50;;;;;;5041239;28;20464;-67
2023/06/06 11:06:51;;;;;;;19.13;18.10;;;30.80;81.80;;;;;;5030090;28;20483;-68
2023/06/06 11:09:22;;;;;;;17.27;16.47;;;30.40;81.40;;;;;;5036525;28;20471;-68
2023/06/06 11:11:50;;;;;;;16.33;15.63;;;30.30;86.00;;;;;;5038901;28;20480;-68
2023/06/06 11:14:22;;;;;;;16.40;15.70;;;31.10;84.30;;;;;;5033133;28;20547;-68
2023/06/06 11:17:02;;;;;;;18.00;17.00;;;31.40;82.70;;;;;;5028656;28;21994;-68
2023/06/06 11:19:37;;;;;;;16.63;15.77;;;31.10;82.90;;;;;;5033803;28;21006;-68
2023/06/06 11:22:04;;;;;;;16.80;16.00;;;30.40;82.60;;;;;;5032493;28;20455;-67
2023/06/06 11:24:36;;;;;;;17.67;16.80;;;30.00;82.80;;;;;;5035532;28;20471;-68
2023/06/06 11:27:06;;;;;;;19.27;18.07;;;30.50;83.90;;;;;;5034101;28;20889;-68
2023/06/06 11:29:34;;;;;;;16.63;15.77;;;29.90;79.70;;;;;;5032712;28;20457;-68
2023/06/06 11:32:04;;;;;;;16.13;15.43;;;30.00;80.20;;;;;;5035464;28;20995;-68
2023/06/06 11:34:35;;;;;;;15.70;15.03;;;30.50;82.60;;;;;;5036516;28;20483;-68
2023/06/06 11:37:02;;;;;;;17.70;16.77;;;31.40;75.20;;;;;;5038063;28;20471;-68
2023/06/06 11:39:30;;;;;;;15.97;15.17;;;31.60;77.80;;;;;;5032970;28;20977;-68
2023/06/06 11:41:57;;;;;;;16.03;15.33;;;31.00;77.80;;;;;;5035997;28;20560;-68
2023/06/06 11:44:33;;;;;;;17.07;16.30;;;31.40;73.20;;;;;;5036468;28;20471;-68
2023/06/06 11:47:02;;;;;;;16.00;15.30;;;31.60;72.60;;;;;;5032116;28;20576;-68
2023/06/06 11:49:43;;;;;;;16.23;15.53;;;31.30;74.20;;;;;;5039447;28;20585;-67
2023/06/06 11:52:11;;;;;;;17.67;16.47;;;31.20;74.70;;;;;;5037661;28;20456;-67
2023/06/06 11:54:39;;;;;;;17.50;16.50;;;31.50;70.00;;;;;;5044369;28;21080;-68
2023/06/06 11:57:08;;;;;;;17.30;16.40;;;31.40;71.00;;;;;;5041375;28;20547;-67
2023/06/06 11:59:35;;;;;;;16.20;15.50;;;31.70;71.70;;;;;;5038850;28;20469;-68
2023/06/06 12:02:03;;;;;;;16.00;15.20;;;31.90;70.00;;;;;;5042971;28;20487;-68
2023/06/06 12:04:31;;;;;;;16.53;15.73;;;32.50;69.70;;;;;;5043000;28;20462;-68
2023/06/06 12:07:03;;;;;;;15.67;15.00;;;33.40;66.10;;;;;;5036799;28;20815;-68
2023/06/06 12:09:30;;;;;;;16.50;15.80;;;34.30;67.50;;;;;;5043195;28;20459;-68
2023/06/06 12:12:00;;;;;;;14.60;14.00;;;34.00;64.00;;;;;;5043556;28;20468;-68
2023/06/06 12:14:28;;;;;;;15.60;14.80;;;33.70;63.30;;;;;;5040121;28;20475;-68
2023/06/06 12:17:03;;;;;;;15.33;14.43;;;33.70;60.70;;;;;;5038175;28;20456;-68
2023/06/06 12:19:32;;;;;;;14.67;14.07;;;33.60;59.10;;;;;;5038487;28;20483;-68
2023/06/06 12:21:59;;;;;;;16.10;15.40;;;33.60;59.00;;;;;;5041000;28;20457;-68
2023/06/06 12:24:29;;;;;;;15.40;14.63;;;33.40;58.00;;;;;;5032213;28;20465;-68
2023/06/06 12:26:59;;;;;;;15.40;14.70;;;33.20;58.50;;;;;;5043855;28;20464;-68
2023/06/06 12:29:27;;;;;;;16.93;16.13;;;33.80;56.50;;;;;;5035476;28;20514;-68
2023/06/06 12:32:15;;;;;;;15.93;15.23;;;34.00;57.20;;;;;;5043224;28;20943;-68
2023/06/06 12:34:45;;;;;;;15.53;14.83;;;34.20;56.80;;;;;;5034268;28;20485;-68
2023/06/06 12:37:12;;;;;;;14.00;13.50;;;33.00;57.80;;;;;;5040231;28;20835;-68
2023/06/06 12:39:40;;;;;;;15.70;14.80;;;33.30;58.10;;;;;;5040336;28;20464;-68
2023/06/06 12:42:14;;;;;;;14.40;13.77;;;34.00;57.30;;;;;;5032212;28;20463;-68